Terminal Aerodrome Forecast
Issued by NWS Atlanta, GA

Home | Current Version | Previous Version | Text Only | Print | Product List | Glossary On
Versions: 1 2 3 4 5 6 7 8 9 10 11 12 13 14 15 16
005
FTUS42 KFFC 241011 AAB
TAFMCN
TAF AMD
KMCN 241011Z 2410/2506 14010KT P6SM SCT025 BKN060
     FM241600 13008KT P6SM BKN045
     FM242200 13006KT P6SM SCT050 BKN120=

USA.gov is the U.S. government's official web portal to all federal, state and local government web resources and services.